Time;durP1;ratioP1;P1;durP2;ratioP2;P2;SDS_P1;SDS_P2;PMS_P1;PMS_P2;Temp;Humidity;BMP_temperature;BMP_pressure;BME280_temperature;BME280_humidity;BME280_pressure;Samples;Min_cycle;Max_cycle;Signal;HPM_P1;HPM_P2
2023/08/06 00:02:04;;;;;;;1.60;1.50;;;22.90;46.70;;;;;;5002534;28;20274;-70
2023/08/06 00:04:29;;;;;;;1.60;1.50;;;22.80;46.60;;;;;;5002783;28;20362;-70
2023/08/06 00:06:54;;;;;;;1.63;1.53;;;22.80;46.60;;;;;;5006977;28;20686;-70
2023/08/06 00:09:20;;;;;;;1.67;1.57;;;22.80;46.60;;;;;;5009490;28;20218;-70
2023/08/06 00:11:46;;;;;;;1.57;1.47;;;22.90;46.70;;;;;;5011177;28;20227;-70
2023/08/06 00:14:15;;;;;;;1.73;1.63;;;22.90;46.60;;;;;;5014808;28;20226;-70
2023/08/06 00:16:42;;;;;;;1.67;1.57;;;22.80;46.50;;;;;;5012880;28;20512;-70
2023/08/06 00:19:08;;;;;;;2.10;2.00;;;22.90;46.60;;;;;;5014798;28;20486;-70
2023/08/06 00:21:33;;;;;;;1.60;1.50;;;22.90;46.60;;;;;;5013933;28;20495;-70
2023/08/06 00:23:59;;;;;;;1.70;1.60;;;22.80;46.50;;;;;;5016075;28;20222;-70
2023/08/06 00:26:24;;;;;;;1.73;1.40;;;22.80;46.50;;;;;;5012390;28;20261;-70
2023/08/06 00:28:50;;;;;;;1.70;1.60;;;22.80;46.50;;;;;;5010569;28;20238;-70
2023/08/06 00:31:15;;;;;;;1.57;1.47;;;22.80;46.50;;;;;;5012848;28;20319;-69
2023/08/06 00:33:41;;;;;;;2.40;1.70;;;22.80;46.50;;;;;;5014104;28;20338;-70
2023/08/06 00:36:06;;;;;;;1.67;1.57;;;22.80;46.60;;;;;;5004161;28;20250;-70
2023/08/06 00:38:32;;;;;;;1.67;1.57;;;22.80;46.50;;;;;;5017714;28;21049;-69
2023/08/06 00:40:57;;;;;;;3.00;1.60;;;22.80;46.50;;;;;;5015259;28;20226;-70
2023/08/06 00:43:23;;;;;;;1.53;1.43;;;22.80;46.50;;;;;;5016053;28;20384;-70
2023/08/06 00:45:49;;;;;;;2.00;1.90;;;22.80;46.50;;;;;;5015809;28;20546;-70
2023/08/06 00:48:15;;;;;;;1.70;1.60;;;22.80;46.50;;;;;;5011060;28;20227;-69
2023/08/06 00:50:40;;;;;;;1.60;1.50;;;22.80;46.50;;;;;;5012312;28;20250;-70
2023/08/06 00:53:06;;;;;;;1.73;1.63;;;22.80;46.40;;;;;;5012407;28;20987;-70
2023/08/06 00:55:33;;;;;;;1.77;1.67;;;22.80;46.40;;;;;;5014135;28;20235;-70
2023/08/06 00:57:58;;;;;;;1.60;1.50;;;22.80;46.30;;;;;;5007196;28;20223;-70
2023/08/06 01:00:25;;;;;;;2.10;2.00;;;22.80;46.40;;;;;;5010787;28;20532;-70
2023/08/06 01:02:51;;;;;;;2.00;1.80;;;22.80;46.30;;;;;;5014407;28;20220;-71
2023/08/06 01:05:17;;;;;;;1.73;1.63;;;22.80;46.40;;;;;;5010666;28;20483;-70
2023/08/06 01:08:10;;;;;;;1.57;1.47;;;22.80;46.40;;;;;;5015326;28;20224;-70
2023/08/06 01:10:53;;;;;;;1.90;1.80;;;22.80;46.40;;;;;;5014960;28;20223;-69
2023/08/06 01:13:29;;;;;;;1.70;1.60;;;22.80;46.50;;;;;;5011375;28;20895;-70
2023/08/06 01:15:57;;;;;;;1.77;1.67;;;22.80;46.40;;;;;;4996887;28;20472;-70
2023/08/06 01:18:23;;;;;;;1.80;1.70;;;22.80;46.50;;;;;;5011134;28;20476;-70
2023/08/06 01:20:49;;;;;;;1.70;1.60;;;22.80;46.50;;;;;;5015049;28;20591;-69
2023/08/06 01:23:15;;;;;;;1.53;1.43;;;22.80;46.50;;;;;;5015917;28;20273;-70
2023/08/06 01:26:14;;;;;;;1.70;1.60;;;22.80;46.40;;;;;;5012614;28;20453;-70
2023/08/06 01:28:52;;;;;;;2.43;1.50;;;22.80;46.50;;;;;;5008562;28;20221;-70
2023/08/06 01:31:35;;;;;;;2.13;1.80;;;22.80;46.50;;;;;;5012359;28;20522;-70
2023/08/06 01:34:01;;;;;;;3.57;1.73;;;22.80;46.50;;;;;;5007276;28;20828;-70
2023/08/06 01:36:28;;;;;;;1.80;1.70;;;22.80;46.40;;;;;;5011754;28;20448;-70
2023/08/06 01:38:54;;;;;;;1.90;1.80;;;22.80;46.50;;;;;;5010900;28;20460;-70
2023/08/06 01:41:19;;;;;;;1.63;1.53;;;22.80;46.50;;;;;;5016159;28;20599;-70
2023/08/06 01:43:45;;;;;;;1.60;1.50;;;22.80;46.50;;;;;;5014391;28;20230;-70
2023/08/06 01:46:10;;;;;;;1.90;1.80;;;22.80;46.50;;;;;;5006927;28;20746;-70
2023/08/06 01:48:37;;;;;;;1.77;1.50;;;22.80;46.50;;;;;;5011921;28;20233;-70
2023/08/06 01:51:05;;;;;;;1.57;1.47;;;22.80;46.50;;;;;;5010654;28;20215;-70
2023/08/06 01:53:31;;;;;;;1.87;1.77;;;22.80;46.50;;;;;;5012398;28;20485;-70
2023/08/06 01:55:57;;;;;;;1.80;1.70;;;22.80;46.50;;;;;;5012110;28;20444;-70
2023/08/06 01:58:23;;;;;;;2.60;1.67;;;22.80;46.50;;;;;;5013810;28;20698;-69
2023/08/06 02:00:48;;;;;;;1.63;1.53;;;22.80;46.50;;;;;;5013253;28;20486;-69
2023/08/06 02:03:14;;;;;;;1.67;1.57;;;22.80;46.40;;;;;;5007777;28;20247;-69
2023/08/06 02:05:40;;;;;;;1.93;1.83;;;22.80;46.50;;;;;;5010316;28;20227;-69
2023/08/06 02:08:05;;;;;;;1.80;1.70;;;22.80;46.40;;;;;;5010018;28;20220;-69
2023/08/06 02:10:31;;;;;;;1.60;1.50;;;22.80;46.50;;;;;;5013188;28;20483;-70
2023/08/06 02:12:57;;;;;;;1.70;1.60;;;22.80;46.50;;;;;;5011871;28;20315;-69
2023/08/06 02:15:22;;;;;;;1.70;1.60;;;22.80;46.50;;;;;;5011852;28;20287;-69
2023/08/06 02:17:47;;;;;;;1.70;1.60;;;22.80;46.50;;;;;;5013136;28;20222;-69
2023/08/06 02:20:13;;;;;;;2.07;1.97;;;22.80;46.50;;;;;;5001321;28;20647;-69
2023/08/06 02:22:39;;;;;;;1.73;1.63;;;22.80;46.50;;;;;;5017211;28;20226;-69
2023/08/06 02:25:04;;;;;;;1.73;1.63;;;22.80;46.50;;;;;;5013251;28;20250;-69
2023/08/06 02:27:30;;;;;;;1.70;1.60;;;22.80;46.40;;;;;;5002941;28;20231;-69
2023/08/06 02:29:56;;;;;;;2.20;2.10;;;22.80;46.40;;;;;;5004582;28;20219;-70
2023/08/06 02:32:21;;;;;;;1.73;1.63;;;22.80;46.50;;;;;;5010886;28;20207;-70
2023/08/06 02:34:47;;;;;;;1.80;1.70;;;22.80;46.50;;;;;;5003513;28;20261;-69
2023/08/06 02:37:12;;;;;;;1.70;1.60;;;22.80;46.50;;;;;;5018726;28;20569;-69
2023/08/06 02:39:39;;;;;;;1.60;1.50;;;22.80;46.50;;;;;;5014348;28;20667;-70
2023/08/06 02:42:07;;;;;;;1.60;1.50;;;22.80;46.40;;;;;;5017353;28;20223;-70
2023/08/06 02:44:33;;;;;;;1.53;1.43;;;22.70;46.40;;;;;;5016846;28;20462;-70
2023/08/06 02:46:59;;;;;;;1.73;1.63;;;22.80;46.50;;;;;;5016143;28;21470;-70
2023/08/06 02:49:25;;;;;;;1.50;1.40;;;22.80;46.50;;;;;;5015508;28;20448;-70
2023/08/06 02:51:50;;;;;;;1.60;1.50;;;22.80;46.50;;;;;;5012791;28;20489;-69
2023/08/06 02:54:16;;;;;;;1.73;1.63;;;22.80;46.50;;;;;;5015524;28;20325;-70
2023/08/06 02:56:46;;;;;;;1.53;1.43;;;22.80;46.50;;;;;;4995631;28;20232;-70
2023/08/06 02:59:12;;;;;;;1.77;1.67;;;22.80;46.50;;;;;;5009984;28;20234;-70
2023/08/06 03:01:37;;;;;;;2.03;1.90;;;22.80;46.50;;;;;;5015126;28;20466;-69
2023/08/06 03:04:03;;;;;;;1.60;1.50;;;22.80;46.50;;;;;;5018353;28;20915;-69
2023/08/06 03:06:29;;;;;;;1.80;1.70;;;22.70;46.40;;;;;;5017461;28;20779;-70
2023/08/06 03:08:54;;;;;;;1.50;1.40;;;22.80;46.50;;;;;;5014024;28;20683;-70
2023/08/06 03:11:20;;;;;;;3.50;1.60;;;22.80;46.50;;;;;;5017732;28;20246;-69
2023/08/06 03:13:49;;;;;;;1.50;1.40;;;22.70;46.40;;;;;;5013590;28;20239;-69
2023/08/06 03:16:15;;;;;;;1.30;1.20;;;22.70;46.40;;;;;;5010342;28;20224;-69
2023/08/06 03:18:40;;;;;;;1.70;1.60;;;22.70;47.20;;;;;;5009671;28;20427;-70
2023/08/06 03:21:06;;;;;;;1.60;1.50;;;22.70;46.40;;;;;;5015864;28;20965;-70
2023/08/06 03:23:32;;;;;;;1.57;1.47;;;22.70;46.40;;;;;;5016935;28;20306;-70
2023/08/06 03:26:04;;;;;;;1.50;1.40;;;22.70;46.40;;;;;;5003075;28;20326;-69
2023/08/06 03:28:30;;;;;;;1.80;1.70;;;22.70;46.40;;;;;;5011999;28;20223;-69
2023/08/06 03:31:02;;;;;;;1.50;1.40;;;22.70;46.50;;;;;;5015248;28;20454;-70
2023/08/06 03:33:29;;;;;;;3.03;1.63;;;22.70;46.40;;;;;;5011297;28;20709;-64
2023/08/06 03:35:54;;;;;;;1.50;1.40;;;22.70;46.50;;;;;;5014696;28;20478;-67
2023/08/06 03:38:20;;;;;;;1.80;1.70;;;22.70;46.50;;;;;;5015452;28;20453;-68
2023/08/06 03:40:49;;;;;;;1.47;1.37;;;22.70;46.40;;;;;;5012654;28;20233;-68
2023/08/06 03:43:14;;;;;;;1.70;1.60;;;22.70;46.40;;;;;;5012537;28;20242;-65
2023/08/06 03:45:41;;;;;;;1.63;1.53;;;22.70;46.40;;;;;;4998424;28;20580;-68
2023/08/06 03:48:07;;;;;;;1.50;1.40;;;22.70;46.50;;;;;;5013780;28;20219;-69
2023/08/06 03:50:32;;;;;;;1.60;1.50;;;22.70;46.50;;;;;;5011346;28;20468;-69
2023/08/06 03:52:58;;;;;;;1.60;1.50;;;22.70;46.50;;;;;;5017623;28;20249;-69
2023/08/06 03:55:23;;;;;;;1.60;1.50;;;22.70;46.50;;;;;;5009772;28;20231;-69
2023/08/06 03:57:49;;;;;;;3.10;1.50;;;22.70;46.50;;;;;;5017079;28;20227;-69
2023/08/06 04:00:14;;;;;;;1.50;1.40;;;22.70;46.50;;;;;;5014229;28;21176;-68
2023/08/06 04:02:40;;;;;;;1.60;1.50;;;22.70;46.50;;;;;;5012547;28;20211;-69
2023/08/06 04:05:05;;;;;;;1.60;1.50;;;22.70;46.50;;;;;;5013756;28;20583;-69
2023/08/06 04:07:31;;;;;;;1.70;1.60;;;22.70;47.00;;;;;;5012698;28;20311;-69
2023/08/06 04:10:01;;;;;;;1.60;1.50;;;22.70;47.30;;;;;;5003158;28;20779;-69
2023/08/06 04:12:27;;;;;;;2.37;1.37;;;22.70;46.50;;;;;;5008068;28;20229;-69
2023/08/06 04:14:54;;;;;;;1.57;1.47;;;22.70;46.50;;;;;;4996043;28;20477;-69
2023/08/06 04:17:20;;;;;;;2.20;1.50;;;22.70;46.50;;;;;;4994712;28;20940;-69
2023/08/06 04:19:53;;;;;;;1.73;1.60;;;22.70;46.50;;;;;;4991074;28;20519;-64
2023/08/06 04:22:20;;;;;;;1.93;1.83;;;22.70;46.50;;;;;;5003399;28;20457;-65
2023/08/06 04:24:45;;;;;;;1.70;1.60;;;22.70;46.50;;;;;;5007369;28;20458;-63
2023/08/06 04:27:12;;;;;;;1.60;1.50;;;22.70;46.50;;;;;;4999821;28;20448;-68
2023/08/06 04:29:37;;;;;;;1.60;1.50;;;22.70;46.50;;;;;;5009504;28;20223;-69
2023/08/06 04:32:06;;;;;;;1.70;1.60;;;22.70;46.60;;;;;;5009596;28;20472;-69
2023/08/06 04:34:31;;;;;;;1.60;1.50;;;22.70;46.60;;;;;;5012523;28;20306;-69
2023/08/06 04:36:57;;;;;;;1.70;1.60;;;22.70;46.60;;;;;;5013872;28;20460;-70
2023/08/06 04:39:22;;;;;;;1.67;1.57;;;22.70;46.60;;;;;;5014049;28;20218;-70
2023/08/06 04:41:48;;;;;;;1.70;1.60;;;22.70;46.60;;;;;;5014318;28;20216;-69
2023/08/06 04:44:13;;;;;;;1.70;1.60;;;22.70;46.60;;;;;;5007225;28;20237;-69
2023/08/06 04:46:39;;;;;;;1.60;1.50;;;22.70;47.00;;;;;;5005703;28;20228;-69
2023/08/06 04:49:04;;;;;;;1.70;1.60;;;22.70;46.60;;;;;;5001291;28;20646;-69
2023/08/06 04:51:30;;;;;;;1.43;1.33;;;22.70;46.60;;;;;;5011736;28;20227;-68
2023/08/06 04:53:57;;;;;;;1.93;1.83;;;22.70;46.60;;;;;;5006563;28;20381;-70
2023/08/06 04:56:23;;;;;;;1.57;1.47;;;22.70;46.60;;;;;;5010265;28;21006;-70
2023/08/06 04:58:48;;;;;;;1.53;1.43;;;22.70;46.50;;;;;;5008486;28;20461;-69
2023/08/06 05:01:14;;;;;;;1.50;1.40;;;22.70;46.50;;;;;;5010780;28;20233;-69
2023/08/06 05:03:39;;;;;;;1.57;1.47;;;22.70;46.50;;;;;;5002875;28;20227;-69
2023/08/06 05:06:05;;;;;;;1.40;1.30;;;22.70;46.60;;;;;;4999309;28;20233;-69
2023/08/06 05:08:30;;;;;;;2.03;1.53;;;22.70;46.50;;;;;;5011673;28;20635;-68
2023/08/06 05:10:56;;;;;;;1.40;1.30;;;22.70;46.50;;;;;;5013076;28;20223;-69
2023/08/06 05:13:21;;;;;;;1.80;1.40;;;22.80;46.50;;;;;;5007414;28;20258;-71
2023/08/06 05:15:47;;;;;;;1.60;1.50;;;22.70;46.50;;;;;;5011275;28;20230;-70
2023/08/06 05:18:12;;;;;;;1.70;1.60;;;22.70;46.40;;;;;;5015288;28;20229;-70
2023/08/06 05:20:40;;;;;;;3.10;1.40;;;22.70;46.40;;;;;;5015607;28;20245;-70
2023/08/06 05:23:05;;;;;;;1.47;1.37;;;22.80;46.60;;;;;;5009392;28;20234;-70
2023/08/06 05:25:31;;;;;;;1.43;1.33;;;22.70;46.40;;;;;;5011534;28;20460;-70
2023/08/06 05:27:57;;;;;;;1.47;1.37;;;22.80;46.50;;;;;;5018461;28;20228;-70
2023/08/06 05:30:22;;;;;;;1.47;1.37;;;22.80;46.50;;;;;;5010119;28;20226;-70
2023/08/06 05:32:48;;;;;;;1.47;1.37;;;22.80;46.60;;;;;;5013383;28;20649;-70
2023/08/06 05:35:13;;;;;;;1.60;1.50;;;22.80;46.50;;;;;;5008632;28;20264;-70
2023/08/06 05:37:39;;;;;;;1.30;1.20;;;22.80;46.60;;;;;;5013051;28;20269;-70
2023/08/06 05:40:05;;;;;;;1.23;1.13;;;22.80;46.60;;;;;;5010966;28;20977;-70
2023/08/06 05:42:30;;;;;;;1.40;1.30;;;22.80;46.60;;;;;;5010978;28;20655;-70
2023/08/06 05:44:56;;;;;;;1.50;1.40;;;22.80;46.60;;;;;;5001068;28;20230;-66
2023/08/06 05:47:21;;;;;;;4.30;1.57;;;22.80;46.60;;;;;;5014347;28;20223;-67
2023/08/06 05:49:47;;;;;;;1.73;1.20;;;22.80;46.70;;;;;;5015472;28;20219;-67
2023/08/06 05:52:12;;;;;;;1.60;1.50;;;22.80;46.70;;;;;;5016763;28;20670;-62
2023/08/06 05:54:38;;;;;;;1.40;1.30;;;22.80;46.80;;;;;;5011674;28;20238;-65
2023/08/06 05:57:04;;;;;;;1.17;1.07;;;22.80;46.70;;;;;;5012941;28;20236;-63
2023/08/06 05:59:30;;;;;;;1.37;1.20;;;22.80;46.70;;;;;;5016633;28;21164;-62
2023/08/06 06:01:55;;;;;;;1.60;1.50;;;22.80;46.80;;;;;;5010833;28;20219;-62
2023/08/06 06:04:21;;;;;;;1.30;1.20;;;22.80;46.70;;;;;;5005484;28;20571;-65
2023/08/06 06:06:47;;;;;;;1.17;1.07;;;22.80;46.70;;;;;;5005344;28;20688;-67
2023/08/06 06:09:13;;;;;;;1.30;1.20;;;22.80;46.70;;;;;;5009485;28;20452;-68
2023/08/06 06:11:39;;;;;;;1.33;1.23;;;22.80;46.70;;;;;;5018823;28;20237;-68
2023/08/06 06:14:04;;;;;;;1.20;1.10;;;22.80;46.70;;;;;;5009440;28;20230;-68
2023/08/06 06:16:30;;;;;;;1.40;1.30;;;22.80;46.80;;;;;;5009150;28;20455;-68
2023/08/06 06:18:57;;;;;;;1.40;1.30;;;22.80;46.70;;;;;;5014450;28;20243;-68
2023/08/06 06:21:23;;;;;;;1.30;1.20;;;22.80;46.80;;;;;;5007562;28;20229;-68
2023/08/06 06:23:48;;;;;;;1.33;1.23;;;22.80;46.80;;;;;;5018059;28;20447;-67
2023/08/06 06:26:14;;;;;;;1.40;1.30;;;22.80;46.80;;;;;;5009637;28;20488;-65
2023/08/06 06:28:39;;;;;;;1.47;1.37;;;22.80;46.90;;;;;;4998454;28;20212;-66
2023/08/06 06:31:05;;;;;;;1.40;1.30;;;22.80;46.90;;;;;;5001893;28;20222;-68
2023/08/06 06:33:30;;;;;;;1.23;1.13;;;22.80;47.00;;;;;;5016593;28;20220;-68
2023/08/06 06:35:56;;;;;;;1.27;1.13;;;22.80;47.00;;;;;;5014564;28;20950;-68
2023/08/06 06:38:21;;;;;;;1.50;1.40;;;22.80;47.80;;;;;;5010156;28;20231;-67
2023/08/06 06:40:56;;;;;;;1.40;1.30;;;22.80;47.10;;;;;;5007793;28;20227;-68
2023/08/06 06:43:23;;;;;;;1.40;1.30;;;22.80;47.20;;;;;;5000963;28;20214;-68
2023/08/06 06:46:01;;;;;;;1.43;1.33;;;22.80;47.10;;;;;;4995409;28;20567;-67
2023/08/06 06:48:28;;;;;;;1.30;1.20;;;22.80;47.10;;;;;;5000387;28;20561;-68
2023/08/06 06:50:53;;;;;;;1.63;1.53;;;22.80;47.10;;;;;;4994718;28;20532;-68
2023/08/06 06:53:19;;;;;;;1.40;1.30;;;22.90;47.20;;;;;;5000892;28;21394;-67
2023/08/06 06:55:44;;;;;;;1.40;1.30;;;22.90;47.20;;;;;;5002402;28;20227;-69
2023/08/06 06:58:10;;;;;;;1.43;1.33;;;22.80;47.10;;;;;;5005488;28;20213;-68
2023/08/06 07:00:37;;;;;;;1.50;1.40;;;22.80;47.10;;;;;;4995191;28;20320;-68
2023/08/06 07:03:02;;;;;;;1.40;1.30;;;22.80;47.10;;;;;;5004343;28;20254;-68
2023/08/06 07:05:28;;;;;;;1.30;1.20;;;22.80;47.10;;;;;;4993729;28;20865;-68
2023/08/06 07:07:53;;;;;;;1.43;1.33;;;22.80;47.10;;;;;;5003717;28;20298;-69
2023/08/06 07:10:19;;;;;;;1.17;1.07;;;22.80;47.10;;;;;;5007084;28;20234;-68
2023/08/06 07:12:44;;;;;;;1.43;1.33;;;22.80;47.10;;;;;;5007012;28;20219;-68
2023/08/06 07:15:10;;;;;;;1.50;1.40;;;22.80;47.10;;;;;;4987848;28;20238;-68
2023/08/06 07:17:36;;;;;;;1.50;1.40;;;22.80;47.10;;;;;;4993395;28;20230;-68
2023/08/06 07:20:02;;;;;;;3.43;1.43;;;22.80;47.10;;;;;;4996642;28;20222;-68
2023/08/06 07:22:28;;;;;;;1.30;1.20;;;22.80;47.10;;;;;;4997412;28;20238;-69
2023/08/06 07:24:53;;;;;;;1.20;1.10;;;22.80;47.10;;;;;;4994104;28;20507;-67
2023/08/06 07:27:19;;;;;;;1.53;1.27;;;22.80;47.10;;;;;;5013275;28;20239;-67
2023/08/06 07:29:44;;;;;;;2.90;1.33;;;22.80;47.20;;;;;;5009805;28;21735;-67
2023/08/06 07:32:10;;;;;;;1.60;1.50;;;22.80;47.10;;;;;;5011404;28;20238;-69
2023/08/06 07:34:35;;;;;;;2.40;1.57;;;22.80;47.10;;;;;;5009653;28;20334;-69
2023/08/06 07:37:01;;;;;;;1.73;1.63;;;22.80;47.10;;;;;;5006559;28;20331;-69
2023/08/06 07:39:28;;;;;;;1.93;1.40;;;22.80;47.10;;;;;;4998135;28;20260;-70
2023/08/06 07:41:54;;;;;;;1.37;1.27;;;22.80;47.10;;;;;;5000946;28;20640;-70
2023/08/06 07:44:19;;;;;;;2.33;1.30;;;22.80;47.10;;;;;;5003869;28;20474;-70
2023/08/06 07:46:45;;;;;;;1.87;1.77;;;22.80;47.10;;;;;;4994749;28;20232;-70
2023/08/06 07:49:13;;;;;;;1.30;1.20;;;22.80;47.10;;;;;;4990248;28;20235;-70
2023/08/06 07:51:39;;;;;;;1.40;1.30;;;22.80;47.10;;;;;;4993128;28;20233;-69
2023/08/06 07:54:06;;;;;;;2.53;1.43;;;22.80;47.10;;;;;;5002158;28;20464;-71
2023/08/06 07:56:31;;;;;;;1.43;1.33;;;22.80;47.10;;;;;;5010996;28;20216;-71
2023/08/06 07:58:57;;;;;;;1.50;1.40;;;22.80;47.10;;;;;;5008787;28;20847;-73
2023/08/06 08:01:22;;;;;;;1.40;1.30;;;22.80;47.10;;;;;;5008285;28;20231;-71
2023/08/06 08:03:48;;;;;;;1.30;1.20;;;22.80;47.10;;;;;;5004682;28;20344;-70
2023/08/06 08:06:13;;;;;;;1.47;1.37;;;22.80;47.10;;;;;;5005165;28;20346;-70
2023/08/06 08:08:39;;;;;;;1.50;1.40;;;22.80;47.10;;;;;;4996800;28;21014;-70
2023/08/06 08:11:05;;;;;;;1.37;1.27;;;22.80;47.10;;;;;;5009574;28;20632;-70
2023/08/06 08:13:31;;;;;;;1.70;1.60;;;22.80;47.10;;;;;;5010478;28;20230;-70
2023/08/06 08:15:58;;;;;;;1.30;1.20;;;22.80;47.10;;;;;;5007793;28;20436;-70
2023/08/06 08:18:23;;;;;;;1.73;1.10;;;22.80;47.10;;;;;;5007245;28;20386;-71
2023/08/06 08:20:49;;;;;;;1.50;1.40;;;22.80;47.10;;;;;;4996706;28;20468;-70
2023/08/06 08:23:14;;;;;;;1.60;1.50;;;22.80;47.10;;;;;;5003520;28;20797;-70
2023/08/06 08:25:40;;;;;;;1.30;1.20;;;22.80;47.10;;;;;;5012496;28;20281;-70
2023/08/06 08:28:07;;;;;;;1.50;1.40;;;22.80;47.20;;;;;;5011985;28;20222;-70
2023/08/06 08:30:33;;;;;;;1.50;1.40;;;22.80;47.10;;;;;;5004245;28;20227;-70
2023/08/06 08:32:58;;;;;;;1.50;1.40;;;22.80;47.20;;;;;;5003338;28;21049;-71
2023/08/06 08:35:24;;;;;;;1.60;1.50;;;22.80;47.20;;;;;;5006253;28;20876;-71
2023/08/06 08:37:50;;;;;;;1.63;1.53;;;22.80;47.20;;;;;;5009314;28;20214;-70
2023/08/06 08:40:16;;;;;;;1.70;1.60;;;22.80;47.20;;;;;;5003917;28;21113;-70
2023/08/06 08:42:42;;;;;;;4.23;1.70;;;22.80;47.30;;;;;;5007288;28;20519;-70
2023/08/06 08:45:15;;;;;;;1.70;1.60;;;22.80;47.30;;;;;;5004408;28;20226;-70
2023/08/06 08:47:42;;;;;;;1.50;1.40;;;22.80;47.30;;;;;;5008260;28;20915;-70
2023/08/06 08:50:10;;;;;;;1.67;1.57;;;22.80;47.40;;;;;;5007233;28;20459;-70
2023/08/06 08:52:36;;;;;;;1.60;1.50;;;22.80;47.40;;;;;;5007497;28;20467;-71
2023/08/06 08:55:02;;;;;;;1.70;1.60;;;22.80;47.50;;;;;;5004359;28;21056;-70
2023/08/06 08:57:27;;;;;;;1.93;1.83;;;22.80;47.50;;;;;;5008415;28;20456;-70
2023/08/06 08:59:53;;;;;;;1.80;1.70;;;22.80;47.40;;;;;;5008009;28;20484;-70
2023/08/06 09:02:21;;;;;;;1.60;1.50;;;22.80;47.40;;;;;;5008429;28;20633;-66
2023/08/06 09:04:48;;;;;;;1.70;1.60;;;22.80;47.40;;;;;;5008768;28;20229;-70
2023/08/06 09:07:18;;;;;;;1.50;1.40;;;22.80;47.50;;;;;;5001282;28;20456;-72
2023/08/06 09:09:45;;;;;;;1.90;1.80;;;22.80;47.50;;;;;;4999129;28;20451;-73
2023/08/06 09:12:15;;;;;;;1.70;1.60;;;22.80;47.50;;;;;;4999776;28;20468;-73
2023/08/06 09:14:41;;;;;;;1.70;1.60;;;22.70;47.50;;;;;;5006323;28;20497;-73
2023/08/06 09:17:07;;;;;;;1.60;1.50;;;22.70;47.50;;;;;;5002753;28;20560;-73
2023/08/06 09:19:33;;;;;;;1.70;1.60;;;22.70;47.50;;;;;;4996552;28;21077;-70
2023/08/06 09:21:59;;;;;;;1.60;1.50;;;22.70;47.50;;;;;;5015664;28;20782;-71
2023/08/06 09:24:26;;;;;;;2.10;1.57;;;22.70;47.60;;;;;;5003054;28;20226;-71
2023/08/06 09:26:52;;;;;;;1.60;1.50;;;22.70;47.60;;;;;;5002549;28;20278;-70
2023/08/06 09:29:17;;;;;;;1.87;1.77;;;22.70;47.60;;;;;;4997806;28;20456;-71
2023/08/06 09:31:45;;;;;;;1.80;1.70;;;22.70;47.60;;;;;;4990484;28;20463;-69
2023/08/06 09:34:24;;;;;;;1.50;1.40;;;22.70;47.60;;;;;;4993745;28;20342;-70
2023/08/06 09:36:51;;;;;;;1.43;1.33;;;22.70;47.60;;;;;;4991067;28;20467;-70
2023/08/06 09:39:19;;;;;;;1.87;1.77;;;22.70;47.60;;;;;;4997615;28;20462;-69
2023/08/06 09:41:47;;;;;;;1.70;1.50;;;22.70;47.60;;;;;;4998962;28;20513;-70
2023/08/06 09:44:19;;;;;;;1.43;1.33;;;22.70;48.40;;;;;;4996631;28;21047;-69
2023/08/06 09:47:04;;;;;;;1.73;1.63;;;22.70;47.60;;;;;;5004785;28;20544;-69
2023/08/06 09:49:32;;;;;;;1.50;1.40;;;22.70;47.60;;;;;;5003447;28;20460;-70
2023/08/06 09:51:59;;;;;;;1.87;1.77;;;22.70;47.60;;;;;;5010646;28;20510;-70
2023/08/06 09:54:26;;;;;;;1.60;1.50;;;22.70;47.70;;;;;;4999401;28;20519;-69
2023/08/06 09:56:54;;;;;;;1.80;1.70;;;22.70;47.70;;;;;;4994851;28;20487;-70
2023/08/06 09:59:20;;;;;;;1.47;1.37;;;22.70;47.70;;;;;;5001435;28;20575;-69
2023/08/06 10:01:46;;;;;;;1.50;1.37;;;22.70;47.80;;;;;;5000772;28;20852;-69
2023/08/06 10:04:16;;;;;;;1.70;1.60;;;22.70;47.60;;;;;;5001731;28;20225;-70
2023/08/06 10:06:42;;;;;;;1.60;1.50;;;22.70;47.80;;;;;;5005259;28;20453;-69
2023/08/06 10:09:09;;;;;;;1.60;1.50;;;22.70;47.80;;;;;;5005043;28;20481;-69
2023/08/06 10:11:36;;;;;;;2.00;1.90;;;22.70;47.70;;;;;;5001697;28;21174;-70
2023/08/06 10:14:19;;;;;;;1.50;1.40;;;22.70;47.80;;;;;;5002932;28;20481;-70
2023/08/06 10:16:46;;;;;;;1.50;1.40;;;22.70;47.80;;;;;;5000512;28;20488;-69
2023/08/06 10:19:13;;;;;;;1.50;1.40;;;22.70;47.80;;;;;;4988789;28;20983;-70
2023/08/06 10:21:39;;;;;;;1.70;1.60;;;22.70;47.80;;;;;;5000356;28;20471;-70
2023/08/06 10:24:10;;;;;;;2.20;1.60;;;22.70;47.80;;;;;;5002961;28;20582;-70
2023/08/06 10:26:36;;;;;;;1.63;1.53;;;22.70;47.90;;;;;;5005166;28;20250;-70
2023/08/06 10:29:21;;;;;;;2.93;1.50;;;22.70;47.80;;;;;;5003058;28;20568;-69
2023/08/06 10:31:55;;;;;;;4.40;1.60;;;22.70;47.90;;;;;;4997091;28;20229;-69
2023/08/06 10:34:21;;;;;;;1.70;1.60;;;22.70;47.90;;;;;;4986091;28;20489;-69
2023/08/06 10:36:46;;;;;;;1.63;1.53;;;22.70;48.00;;;;;;4996507;28;22196;-69
2023/08/06 10:39:15;;;;;;;1.30;1.20;;;22.70;48.00;;;;;;5010565;28;20312;-69
2023/08/06 10:41:43;;;;;;;1.50;1.40;;;22.70;48.00;;;;;;5006401;28;20223;-70
2023/08/06 10:44:10;;;;;;;1.60;1.50;;;22.70;48.00;;;;;;5004699;28;20980;-68
2023/08/06 10:46:37;;;;;;;2.00;1.90;;;22.70;48.00;;;;;;5001144;28;20476;-69
2023/08/06 10:49:04;;;;;;;1.30;1.20;;;22.70;48.00;;;;;;4995660;28;20463;-70
2023/08/06 10:51:30;;;;;;;1.50;1.40;;;22.70;47.90;;;;;;4990213;28;20511;-70
2023/08/06 10:53:57;;;;;;;1.40;1.30;;;22.70;47.80;;;;;;5004250;28;20480;-70
2023/08/06 10:56:27;;;;;;;1.60;1.50;;;22.70;47.80;;;;;;4997885;28;20991;-68
2023/08/06 10:58:57;;;;;;;1.57;1.47;;;22.70;47.90;;;;;;4991251;28;21014;-70
2023/08/06 11:01:23;;;;;;;1.53;1.43;;;22.70;47.90;;;;;;5002738;28;20459;-70
2023/08/06 11:03:50;;;;;;;1.23;1.13;;;22.70;48.00;;;;;;4989344;28;20466;-70
2023/08/06 11:06:20;;;;;;;1.60;1.50;;;22.70;48.00;;;;;;4999754;28;20451;-71
2023/08/06 11:08:53;;;;;;;6.20;1.60;;;22.70;48.10;;;;;;5010843;28;20452;-68
2023/08/06 11:11:19;;;;;;;1.80;1.30;;;22.70;47.90;;;;;;5004719;28;20471;-70
2023/08/06 11:13:47;;;;;;;2.10;1.50;;;22.70;47.90;;;;;;5005777;28;20468;-71
2023/08/06 11:16:21;;;;;;;6.43;1.80;;;22.70;47.90;;;;;;4998003;28;20456;-71
2023/08/06 11:18:47;;;;;;;2.33;1.60;;;22.70;48.00;;;;;;5006004;28;20460;-71
2023/08/06 11:21:13;;;;;;;3.13;1.50;;;22.70;48.00;;;;;;5012263;28;20460;-70
2023/08/06 11:23:40;;;;;;;1.90;1.43;;;22.70;48.00;;;;;;5002627;28;20460;-71
2023/08/06 11:26:05;;;;;;;2.43;1.37;;;22.70;48.10;;;;;;5001423;28;20219;-70
2023/08/06 11:28:31;;;;;;;62.20;12.80;;;22.70;48.10;;;;;;4997972;28;20472;-69
2023/08/06 11:31:02;;;;;;;47.23;10.63;;;22.70;48.10;;;;;;5009776;28;20239;-70
2023/08/06 11:33:28;;;;;;;27.10;7.23;;;22.70;48.10;;;;;;5011546;28;20235;-70
2023/08/06 11:35:58;;;;;;;240.23;27.43;;;22.70;48.10;;;;;;5014042;28;20556;-70
2023/08/06 11:38:28;;;;;;;155.07;18.00;;;22.70;48.10;;;;;;5013199;28;20602;-68
2023/08/06 11:40:54;;;;;;;103.27;15.23;;;22.80;48.20;;;;;;5005344;28;20506;-70
2023/08/06 11:43:22;;;;;;;36.90;9.77;;;22.80;48.30;;;;;;5005847;28;21479;-71
2023/08/06 11:45:49;;;;;;;37.63;7.73;;;22.80;49.00;;;;;;5005243;28;20764;-71
2023/08/06 11:48:14;;;;;;;22.40;6.60;;;22.80;48.20;;;;;;5004676;28;20483;-71
2023/08/06 11:50:40;;;;;;;16.77;5.53;;;22.80;48.30;;;;;;4997230;28;22133;-70
2023/08/06 11:53:06;;;;;;;14.83;4.90;;;22.80;48.20;;;;;;5000291;28;20251;-70
2023/08/06 11:55:32;;;;;;;10.27;3.60;;;22.80;48.20;;;;;;4995186;28;20242;-69
2023/08/06 11:57:58;;;;;;;4.90;3.10;;;22.80;48.30;;;;;;5014206;28;20227;-70
2023/08/06 12:00:25;;;;;;;6.97;3.10;;;22.80;48.30;;;;;;5011150;28;20480;-70
2023/08/06 12:02:52;;;;;;;11.57;3.40;;;22.80;48.30;;;;;;5016955;28;20456;-69
2023/08/06 12:05:25;;;;;;;7.40;2.70;;;22.80;48.30;;;;;;5013431;28;20482;-69
2023/08/06 12:07:53;;;;;;;7.90;3.37;;;22.80;48.30;;;;;;5011785;28;20551;-69
2023/08/06 12:10:20;;;;;;;5.27;2.63;;;22.80;48.30;;;;;;5007392;28;20499;-69
2023/08/06 12:12:46;;;;;;;5.13;2.47;;;22.80;48.30;;;;;;5015590;28;20440;-69
2023/08/06 12:15:11;;;;;;;8.40;2.73;;;22.80;48.30;;;;;;5013920;28;20495;-69
2023/08/06 12:17:37;;;;;;;7.00;3.10;;;22.80;48.30;;;;;;5007430;28;20683;-69
2023/08/06 12:20:06;;;;;;;4.30;2.83;;;22.90;48.40;;;;;;5007492;28;20223;-67
2023/08/06 12:22:34;;;;;;;4.83;2.60;;;22.80;48.30;;;;;;5013398;28;20253;-66
2023/08/06 12:25:07;;;;;;;6.10;2.43;;;22.90;48.40;;;;;;5005141;28;20920;-66
2023/08/06 12:27:36;;;;;;;8.07;2.90;;;22.90;48.40;;;;;;5008366;28;20463;-67
2023/08/06 12:30:03;;;;;;;6.13;2.50;;;22.90;48.30;;;;;;5013760;28;20452;-67
2023/08/06 12:32:29;;;;;;;2.53;2.10;;;22.90;48.40;;;;;;5017079;28;20463;-67
2023/08/06 12:34:55;;;;;;;11.47;2.73;;;22.90;48.40;;;;;;5017732;28;20471;-67
2023/08/06 12:37:21;;;;;;;4.50;2.97;;;22.90;48.40;;;;;;5016804;28;20452;-66
2023/08/06 12:39:47;;;;;;;3.23;2.37;;;22.90;48.30;;;;;;5009191;28;20224;-67
2023/08/06 12:42:12;;;;;;;3.77;2.33;;;22.90;48.40;;;;;;5010217;28;20251;-66
2023/08/06 12:44:38;;;;;;;3.33;2.50;;;22.80;48.20;;;;;;5000297;28;20845;-67